Time;durP1;ratioP1;P1;durP2;ratioP2;P2;SDS_P1;SDS_P2;PMS_P1;PMS_P2;Temp;Humidity;BMP_temperature;BMP_pressure;BME280_temperature;BME280_humidity;BME280_pressure;Samples;Min_cycle;Max_cycle;Signal;HPM_P1;HPM_P2
2022/08/01 00:00:30;;;;;;;15.55;7.13;;;18.70;99.90;;;;;;5045919;28;20049;-68
2022/08/01 00:02:56;;;;;;;11.30;7.22;;;18.70;99.90;;;;;;5045378;28;20120;-66
2022/08/01 00:05:21;;;;;;;11.05;6.65;;;18.60;99.90;;;;;;5053275;28;20447;-66
2022/08/01 00:07:47;;;;;;;11.73;7.10;;;18.70;99.90;;;;;;5044317;28;20040;-66
2022/08/01 00:10:15;;;;;;;10.95;6.97;;;18.60;99.90;;;;;;5052814;28;20040;-67
2022/08/01 00:12:41;;;;;;;13.02;7.15;;;18.70;99.90;;;;;;5052412;28;20045;-66
2022/08/01 00:15:09;;;;;;;11.20;7.20;;;18.60;99.90;;;;;;5051199;28;20037;-67
2022/08/01 00:17:35;;;;;;;12.13;7.32;;;18.70;99.90;;;;;;5051429;28;20114;-66
2022/08/01 00:20:02;;;;;;;15.10;7.35;;;18.60;99.90;;;;;;5052883;28;20064;-66
2022/08/01 00:22:27;;;;;;;12.02;7.38;;;18.60;99.90;;;;;;5052683;28;20056;-66
2022/08/01 00:24:53;;;;;;;12.70;8.27;;;18.70;99.90;;;;;;5046764;28;20033;-67
2022/08/01 00:27:19;;;;;;;11.98;7.63;;;18.70;99.90;;;;;;5040793;28;20387;-66
2022/08/01 00:29:44;;;;;;;13.60;8.18;;;18.70;99.90;;;;;;5051208;28;20044;-66
2022/08/01 00:32:10;;;;;;;13.45;8.02;;;18.70;99.90;;;;;;5049090;28;20077;-66
2022/08/01 00:34:35;;;;;;;21.20;8.40;;;18.70;99.90;;;;;;5039429;28;20037;-66
2022/08/01 00:37:01;;;;;;;13.20;8.13;;;18.70;99.90;;;;;;5052526;28;20103;-66
2022/08/01 00:39:27;;;;;;;16.10;8.45;;;18.70;99.90;;;;;;5052898;28;20048;-65
2022/08/01 00:41:52;;;;;;;13.40;8.35;;;18.70;99.90;;;;;;5047064;28;20047;-66
2022/08/01 00:44:18;;;;;;;14.07;8.48;;;18.70;99.90;;;;;;5052309;28;20033;-66
2022/08/01 00:46:44;;;;;;;16.70;9.27;;;18.70;99.90;;;;;;5052267;28;20033;-67
2022/08/01 00:49:09;;;;;;;17.38;9.45;;;18.70;99.90;;;;;;5047250;28;20041;-66
2022/08/01 00:51:35;;;;;;;15.88;9.43;;;18.70;99.90;;;;;;5050167;28;20261;-66
2022/08/01 00:54:01;;;;;;;17.05;9.52;;;18.60;99.90;;;;;;5052080;28;20029;-66
2022/08/01 00:56:27;;;;;;;15.82;9.55;;;18.70;99.90;;;;;;5049063;28;20045;-67
2022/08/01 00:58:56;;;;;;;17.77;9.93;;;18.60;99.90;;;;;;5042258;28;20041;-65
2022/08/01 01:01:22;;;;;;;15.40;9.13;;;18.60;99.90;;;;;;5051932;28;20119;-67
2022/08/01 01:03:49;;;;;;;16.35;8.65;;;18.60;99.90;;;;;;5048704;28;20146;-67
2022/08/01 01:06:30;;;;;;;15.02;9.07;;;18.60;99.90;;;;;;5042896;28;20030;-66
2022/08/01 01:09:13;;;;;;;15.07;8.90;;;18.60;99.90;;;;;;5043576;28;20442;-68
2022/08/01 01:11:54;;;;;;;12.90;9.13;;;18.60;99.90;;;;;;5051662;28;20084;-67
2022/08/01 01:14:46;;;;;;;14.93;9.10;;;18.60;99.90;;;;;;5047583;28;20037;-66
2022/08/01 01:17:16;;;;;;;14.95;8.77;;;18.60;99.90;;;;;;5035245;28;20045;-66
2022/08/01 01:19:47;;;;;;;12.63;7.75;;;18.60;99.90;;;;;;5051945;28;20101;-65
2022/08/01 01:22:21;;;;;;;11.45;7.32;;;18.50;99.90;;;;;;5050453;28;20071;-65
2022/08/01 01:25:07;;;;;;;11.95;7.35;;;18.60;99.90;;;;;;5039819;28;20120;-67
2022/08/01 01:27:42;;;;;;;12.40;7.57;;;18.50;99.90;;;;;;5047528;28;20123;-66
2022/08/01 01:30:08;;;;;;;12.63;7.93;;;18.50;99.90;;;;;;5051884;28;20440;-67
2022/08/01 01:32:46;;;;;;;12.60;7.55;;;18.50;99.90;;;;;;5040958;28;20041;-66
2022/08/01 01:35:21;;;;;;;14.43;7.22;;;18.50;99.90;;;;;;5051406;28;20032;-66
2022/08/01 01:37:48;;;;;;;13.32;7.43;;;18.50;99.90;;;;;;5051547;28;20060;-66
2022/08/01 01:40:15;;;;;;;10.55;7.30;;;18.50;99.90;;;;;;5040472;28;20033;-66
2022/08/01 01:42:42;;;;;;;10.82;7.45;;;18.50;99.90;;;;;;5046742;28;20123;-66
2022/08/01 01:45:08;;;;;;;11.77;7.65;;;18.50;99.90;;;;;;5051421;28;20033;-66
2022/08/01 01:47:37;;;;;;;13.57;7.53;;;18.50;99.90;;;;;;5051701;28;20063;-66
2022/08/01 01:50:06;;;;;;;11.23;7.63;;;18.40;99.90;;;;;;5047594;28;20705;-66
2022/08/01 01:52:33;;;;;;;12.55;7.30;;;18.40;99.90;;;;;;5050479;28;20045;-67
2022/08/01 01:55:01;;;;;;;11.27;7.40;;;18.40;99.90;;;;;;5051410;28;20098;-66
2022/08/01 01:57:28;;;;;;;12.10;7.93;;;18.40;99.90;;;;;;5039178;28;20104;-66
2022/08/01 01:59:55;;;;;;;11.48;7.35;;;18.40;99.90;;;;;;5042776;28;20064;-66
2022/08/01 02:02:23;;;;;;;12.00;7.78;;;18.40;99.90;;;;;;5050818;28;20057;-66
2022/08/01 02:04:51;;;;;;;11.13;7.47;;;18.40;99.90;;;;;;5051295;28;20041;-67
2022/08/01 02:07:22;;;;;;;11.30;7.10;;;18.40;99.90;;;;;;5041707;28;20068;-66
2022/08/01 02:09:48;;;;;;;12.05;6.82;;;18.40;99.90;;;;;;5044155;28;20029;-66
2022/08/01 02:12:17;;;;;;;10.65;7.10;;;18.40;99.90;;;;;;5050674;28;20047;-67
2022/08/01 02:14:44;;;;;;;10.50;6.88;;;18.40;99.90;;;;;;5040355;28;20115;-67
2022/08/01 02:17:12;;;;;;;11.00;6.82;;;18.40;99.90;;;;;;5044804;28;20036;-66
2022/08/01 02:19:38;;;;;;;10.40;6.95;;;18.40;99.90;;;;;;5050624;28;20402;-66
2022/08/01 02:22:07;;;;;;;13.30;7.65;;;18.40;99.90;;;;;;5045812;28;20038;-66
2022/08/01 02:24:44;;;;;;;10.38;6.47;;;18.40;99.90;;;;;;5047704;28;20487;-66
2022/08/01 02:27:15;;;;;;;12.93;7.40;;;18.40;99.90;;;;;;5050955;28;20048;-66
2022/08/01 02:29:51;;;;;;;9.50;6.95;;;18.40;99.90;;;;;;5045591;28;20044;-66
2022/08/01 02:32:24;;;;;;;11.95;6.80;;;18.40;99.90;;;;;;5044897;28;20037;-67
2022/08/01 02:34:51;;;;;;;12.10;7.00;;;18.30;99.90;;;;;;5050483;28;20037;-66
2022/08/01 02:37:20;;;;;;;11.90;6.57;;;18.40;99.90;;;;;;5049994;28;20052;-66
2022/08/01 02:39:50;;;;;;;9.80;6.20;;;18.40;99.90;;;;;;5044530;28;20063;-66
2022/08/01 02:42:18;;;;;;;6.53;4.68;;;18.30;99.90;;;;;;5049884;28;20044;-66
2022/08/01 02:44:45;;;;;;;5.90;4.03;;;18.30;99.90;;;;;;5050064;28;20040;-66
2022/08/01 02:47:12;;;;;;;5.22;3.60;;;18.40;99.90;;;;;;5039058;28;20037;-67
2022/08/01 02:49:46;;;;;;;5.70;3.25;;;18.30;99.90;;;;;;5043046;28;20044;-66
2022/08/01 02:52:15;;;;;;;6.93;3.35;;;18.20;99.90;;;;;;5050142;28;20399;-66
2022/08/01 02:54:43;;;;;;;4.72;3.45;;;18.20;99.90;;;;;;5044614;28;20088;-66
2022/08/01 02:57:10;;;;;;;5.00;3.42;;;18.20;99.90;;;;;;5050143;28;20032;-66
2022/08/01 02:59:37;;;;;;;5.10;3.60;;;18.20;99.90;;;;;;5050380;28;20041;-67
2022/08/01 03:02:04;;;;;;;5.20;3.90;;;18.10;99.90;;;;;;5032075;28;20077;-66
2022/08/01 03:04:33;;;;;;;5.43;4.00;;;18.10;99.90;;;;;;5042561;28;20037;-66
2022/08/01 03:07:01;;;;;;;8.85;4.05;;;18.10;99.90;;;;;;5042802;28;20029;-66
2022/08/01 03:09:29;;;;;;;6.30;4.18;;;18.10;99.90;;;;;;5057999;28;20040;-66
2022/08/01 03:11:59;;;;;;;6.68;3.80;;;18.00;99.90;;;;;;5057852;28;20123;-66
2022/08/01 03:14:26;;;;;;;4.68;3.33;;;18.10;99.90;;;;;;5043971;28;20033;-66
2022/08/01 03:16:52;;;;;;;6.15;3.63;;;18.10;99.90;;;;;;5049942;28;20674;-66
2022/08/01 03:19:20;;;;;;;7.28;3.70;;;18.00;99.90;;;;;;5046515;28;20098;-67
2022/08/01 03:21:48;;;;;;;5.85;3.85;;;18.10;99.90;;;;;;5045332;28;20037;-66
2022/08/01 03:24:16;;;;;;;5.72;3.67;;;18.10;99.90;;;;;;5049470;28;20039;-66
2022/08/01 03:26:43;;;;;;;6.50;3.67;;;18.10;99.90;;;;;;5050451;28;20086;-66
2022/08/01 03:29:15;;;;;;;5.10;3.80;;;18.10;99.90;;;;;;5039329;28;20541;-67
2022/08/01 03:31:44;;;;;;;8.98;4.18;;;18.10;99.90;;;;;;5048545;28;20037;-68
2022/08/01 03:34:10;;;;;;;10.35;4.72;;;18.10;99.90;;;;;;5055147;28;20049;-66
2022/08/01 03:36:46;;;;;;;5.00;4.10;;;18.10;99.90;;;;;;5041552;28;20052;-66
2022/08/01 03:39:13;;;;;;;6.82;4.45;;;18.10;99.90;;;;;;5039270;28;20040;-66
2022/08/01 03:41:43;;;;;;;7.78;4.35;;;18.10;99.90;;;;;;5049417;28;20041;-66
2022/08/01 03:44:14;;;;;;;8.93;4.07;;;18.10;99.90;;;;;;5050007;28;20120;-67
2022/08/01 03:46:44;;;;;;;8.10;4.35;;;18.00;99.90;;;;;;5046015;28;20037;-66
2022/08/01 03:49:39;;;;;;;10.33;4.87;;;18.00;99.90;;;;;;5041141;28;20724;-66
2022/08/01 03:52:07;;;;;;;6.90;4.15;;;18.00;99.90;;;;;;5051671;28;20091;-66
2022/08/01 03:54:37;;;;;;;7.97;4.40;;;18.00;99.90;;;;;;5047852;28;20040;-67
2022/08/01 03:57:04;;;;;;;7.30;4.32;;;18.00;99.90;;;;;;5053301;28;20495;-66
2022/08/01 03:59:31;;;;;;;7.32;4.20;;;18.00;99.90;;;;;;5053113;28;20041;-66
2022/08/01 04:01:58;;;;;;;7.88;3.67;;;18.00;99.90;;;;;;5050695;28;20672;-67
2022/08/01 04:04:24;;;;;;;7.35;3.40;;;18.00;99.90;;;;;;5041239;28;20041;-66
2022/08/01 04:06:53;;;;;;;5.57;3.35;;;18.00;99.90;;;;;;5051638;28;20044;-66
2022/08/01 04:09:20;;;;;;;5.68;3.10;;;17.90;99.90;;;;;;5049020;28;20040;-66
2022/08/01 04:11:46;;;;;;;4.32;3.08;;;18.00;99.90;;;;;;5046951;28;20045;-66
2022/08/01 04:14:12;;;;;;;9.02;3.42;;;17.90;99.90;;;;;;5052854;28;20040;-67
2022/08/01 04:16:38;;;;;;;7.07;3.50;;;17.90;99.90;;;;;;5052867;28;20040;-66
2022/08/01 04:19:07;;;;;;;5.07;3.20;;;17.90;99.90;;;;;;5050090;28;20583;-67
2022/08/01 04:21:34;;;;;;;6.18;3.30;;;17.90;99.90;;;;;;5052099;28;20183;-66
2022/08/01 04:24:05;;;;;;;6.95;3.35;;;18.00;99.90;;;;;;5052651;28;20495;-67
2022/08/01 04:26:34;;;;;;;7.22;3.50;;;17.90;99.90;;;;;;5049173;28;20037;-66
2022/08/01 04:29:04;;;;;;;5.88;3.20;;;17.90;99.90;;;;;;5038328;28;20072;-66
2022/08/01 04:31:31;;;;;;;7.00;3.40;;;17.90;99.90;;;;;;5052207;28;20037;-67
2022/08/01 04:33:59;;;;;;;6.50;3.22;;;17.90;99.90;;;;;;5052952;28;20037;-66
2022/08/01 04:36:26;;;;;;;5.82;3.30;;;17.90;99.90;;;;;;5042861;28;20037;-66
2022/08/01 04:38:59;;;;;;;6.45;3.30;;;17.90;99.90;;;;;;5044197;28;20060;-66
2022/08/01 04:41:26;;;;;;;8.55;3.35;;;17.90;99.90;;;;;;5052318;28;20037;-66
2022/08/01 04:43:52;;;;;;;4.97;3.28;;;17.90;99.90;;;;;;5043668;28;20034;-66
2022/08/01 04:46:18;;;;;;;6.80;3.55;;;17.90;99.90;;;;;;5038863;28;20472;-66
2022/08/01 04:48:48;;;;;;;6.45;3.25;;;17.90;99.90;;;;;;5051147;28;20114;-66
2022/08/01 04:51:17;;;;;;;6.43;3.20;;;17.90;99.90;;;;;;5052305;28;20064;-66
2022/08/01 04:53:48;;;;;;;7.13;3.45;;;17.90;99.90;;;;;;5040490;28;20037;-67
2022/08/01 04:56:14;;;;;;;8.65;3.75;;;17.90;99.90;;;;;;5047046;28;20070;-67
2022/08/01 04:58:43;;;;;;;7.22;3.20;;;17.90;99.90;;;;;;5052123;28;20041;-66
2022/08/01 05:01:10;;;;;;;8.05;3.47;;;17.90;99.90;;;;;;5045507;28;20048;-66
2022/08/01 05:03:36;;;;;;;6.53;3.15;;;17.90;99.90;;;;;;5033510;28;20041;-66
2022/08/01 05:06:03;;;;;;;9.55;3.85;;;17.90;99.90;;;;;;5051962;28;20039;-66
2022/08/01 05:08:29;;;;;;;8.00;3.28;;;17.90;99.90;;;;;;5047459;28;20046;-67
2022/08/01 05:10:55;;;;;;;7.93;3.38;;;17.90;99.90;;;;;;5050924;28;20051;-66
2022/08/01 05:13:20;;;;;;;8.30;3.17;;;17.90;99.90;;;;;;5051596;28;20072;-66
2022/08/01 05:15:46;;;;;;;6.80;3.65;;;18.00;99.90;;;;;;5051624;28;20087;-67
2022/08/01 05:18:12;;;;;;;9.07;3.40;;;17.90;99.90;;;;;;5042240;28;20045;-67
2022/08/01 05:20:38;;;;;;;9.52;3.47;;;17.90;99.90;;;;;;5044763;28;20035;-66
2022/08/01 05:23:05;;;;;;;6.53;3.40;;;17.90;99.90;;;;;;5046464;28;20542;-67
2022/08/01 05:25:30;;;;;;;7.20;3.38;;;17.90;99.90;;;;;;5051840;28;20037;-67
2022/08/01 05:27:56;;;;;;;9.15;3.70;;;17.90;99.90;;;;;;5052030;28;20434;-66
2022/08/01 05:30:21;;;;;;;10.73;4.00;;;17.90;99.90;;;;;;5040619;28;20025;-66
2022/08/01 05:32:47;;;;;;;7.25;3.22;;;17.90;99.90;;;;;;5050336;28;20488;-67
2022/08/01 05:35:13;;;;;;;8.43;3.38;;;17.90;99.90;;;;;;5045907;28;20033;-66
2022/08/01 05:37:38;;;;;;;4.82;3.20;;;17.90;99.90;;;;;;5045150;28;20049;-67
2022/08/01 05:40:05;;;;;;;7.72;3.25;;;17.90;99.90;;;;;;5051732;28;20120;-67
2022/08/01 05:42:31;;;;;;;10.35;3.60;;;17.80;99.90;;;;;;5041986;28;20212;-66
2022/08/01 05:44:56;;;;;;;5.63;2.92;;;17.80;99.90;;;;;;5038746;28;20130;-67
2022/08/01 05:47:22;;;;;;;11.27;4.07;;;17.80;99.90;;;;;;5051297;28;20448;-67
2022/08/01 05:49:48;;;;;;;6.78;3.13;;;17.70;99.90;;;;;;5051120;28;20037;-66
2022/08/01 05:52:13;;;;;;;7.28;3.30;;;17.70;99.90;;;;;;5033442;28;20040;-66
2022/08/01 05:54:39;;;;;;;9.13;3.22;;;17.60;99.90;;;;;;5041934;28;20037;-66
2022/08/01 05:57:05;;;;;;;9.65;3.67;;;17.60;99.90;;;;;;5051170;28;20418;-66
2022/08/01 05:59:31;;;;;;;6.95;3.13;;;17.50;99.90;;;;;;5044176;28;20045;-66
2022/08/01 06:01:57;;;;;;;9.82;3.50;;;17.40;99.90;;;;;;5049197;28;20025;-67
2022/08/01 06:04:22;;;;;;;7.05;3.50;;;17.40;99.90;;;;;;5051347;28;20558;-67
2022/08/01 06:06:48;;;;;;;8.45;3.28;;;17.40;99.90;;;;;;5050843;28;20507;-66
2022/08/01 06:09:14;;;;;;;7.85;3.30;;;17.40;99.90;;;;;;5035688;28;20033;-67
2022/08/01 06:11:40;;;;;;;11.30;3.65;;;17.50;99.90;;;;;;5050182;28;20114;-66
2022/08/01 06:14:05;;;;;;;11.57;3.20;;;17.60;99.90;;;;;;5047327;28;20082;-67
2022/08/01 06:16:31;;;;;;;13.20;3.28;;;17.60;99.90;;;;;;5043531;28;20044;-67
2022/08/01 06:18:57;;;;;;;9.35;3.42;;;17.70;99.90;;;;;;5058590;28;20111;-66
2022/08/01 06:21:23;;;;;;;13.63;3.78;;;17.80;99.90;;;;;;5042776;28;20495;-67
2022/08/01 06:23:48;;;;;;;8.88;3.63;;;17.90;99.90;;;;;;5049468;28;20041;-67
2022/08/01 06:26:17;;;;;;;10.25;3.55;;;18.00;99.90;;;;;;5040959;28;20037;-66
2022/08/01 06:28:43;;;;;;;10.15;3.20;;;18.10;99.90;;;;;;5044344;28;20037;-66
2022/08/01 06:31:11;;;;;;;7.55;2.85;;;18.20;99.90;;;;;;5052960;28;20372;-67
2022/08/01 06:33:36;;;;;;;10.13;3.13;;;18.20;99.90;;;;;;5052639;28;20047;-66
2022/08/01 06:36:03;;;;;;;12.30;3.50;;;18.30;99.90;;;;;;5050103;28;20045;-66
2022/08/01 06:38:28;;;;;;;12.10;2.92;;;18.30;99.90;;;;;;5039353;28;20040;-67
2022/08/01 06:40:54;;;;;;;13.75;3.20;;;18.30;99.90;;;;;;5046852;28;20762;-67
2022/08/01 06:43:21;;;;;;;12.32;3.00;;;18.40;99.90;;;;;;5048590;28;20082;-66
2022/08/01 06:45:46;;;;;;;14.25;3.45;;;18.50;99.90;;;;;;5069612;28;20040;-67
2022/08/01 06:48:12;;;;;;;8.95;2.53;;;18.60;99.90;;;;;;5070262;28;20040;-67
2022/08/01 06:50:38;;;;;;;9.98;3.05;;;18.60;99.90;;;;;;5043501;28;20039;-67
2022/08/01 06:53:04;;;;;;;10.75;2.80;;;18.60;99.90;;;;;;5056066;28;20371;-67
2022/08/01 06:55:30;;;;;;;11.88;3.10;;;18.60;99.90;;;;;;5070337;28;20311;-66
2022/08/01 06:57:56;;;;;;;13.57;4.03;;;18.80;99.90;;;;;;5061669;28;20029;-67
2022/08/01 07:00:24;;;;;;;12.43;3.60;;;18.90;99.90;;;;;;5047909;28;20036;-66
2022/08/01 07:02:50;;;;;;;11.70;3.00;;;19.00;99.90;;;;;;5058030;28;20049;-66
2022/08/01 07:05:16;;;;;;;15.35;3.42;;;19.10;99.90;;;;;;5045851;28;20119;-67
2022/08/01 07:07:42;;;;;;;12.25;2.88;;;18.90;99.90;;;;;;5041189;28;20567;-67
2022/08/01 07:10:08;;;;;;;14.57;3.50;;;18.90;99.90;;;;;;5058233;28;20168;-67
2022/08/01 07:12:36;;;;;;;11.50;2.90;;;18.70;99.90;;;;;;5049844;28;20483;-67
2022/08/01 07:15:03;;;;;;;11.80;2.88;;;18.60;99.90;;;;;;5035801;28;20090;-67
2022/08/01 07:17:29;;;;;;;12.88;3.00;;;18.60;99.90;;;;;;5044512;28;20127;-67
2022/08/01 07:19:55;;;;;;;12.60;3.13;;;18.60;99.90;;;;;;5069610;28;20123;-67
2022/08/01 07:22:21;;;;;;;12.90;3.30;;;18.70;99.90;;;;;;5067177;28;20036;-67
2022/08/01 07:24:46;;;;;;;17.17;3.67;;;18.80;99.90;;;;;;5049407;28;20392;-66
2022/08/01 07:27:12;;;;;;;10.50;2.78;;;18.90;99.90;;;;;;5046707;28;20064;-67
2022/08/01 07:29:38;;;;;;;13.85;3.13;;;19.00;99.90;;;;;;5065355;28;20040;-67
2022/08/01 07:32:04;;;;;;;14.23;3.70;;;19.00;99.90;;;;;;5048277;28;20033;-66
2022/08/01 07:34:29;;;;;;;13.75;3.50;;;19.00;99.90;;;;;;5036037;28;20054;-67
2022/08/01 07:36:55;;;;;;;11.85;3.40;;;18.90;99.90;;;;;;5055851;28;20031;-66
2022/08/01 07:39:20;;;;;;;14.50;3.60;;;19.00;99.90;;;;;;5063100;28;20499;-66
2022/08/01 07:41:46;;;;;;;9.55;3.05;;;19.10;99.90;;;;;;5053346;28;20025;-67
2022/08/01 07:44:12;;;;;;;12.20;3.00;;;19.20;99.90;;;;;;5049046;28;20561;-67
2022/08/01 07:46:37;;;;;;;14.65;3.63;;;19.30;99.90;;;;;;5053741;28;20166;-67
2022/08/01 07:49:03;;;;;;;10.07;2.78;;;19.40;99.90;;;;;;5041924;28;20033;-67
2022/08/01 07:51:29;;;;;;;11.32;3.40;;;19.40;99.90;;;;;;5046026;28;20032;-66
2022/08/01 07:53:54;;;;;;;14.40;3.40;;;19.50;99.90;;;;;;5053515;28;20037;-67
2022/08/01 07:56:20;;;;;;;12.02;3.65;;;19.50;99.90;;;;;;5047924;28;20648;-67
2022/08/01 07:58:46;;;;;;;17.65;3.97;;;19.40;99.90;;;;;;5044190;28;20068;-67
2022/08/01 08:01:12;;;;;;;15.60;3.63;;;19.40;99.90;;;;;;5043322;28;20075;-67
2022/08/01 08:03:37;;;;;;;10.07;3.30;;;19.40;99.90;;;;;;5053164;28;20076;-67
2022/08/01 08:06:03;;;;;;;15.85;4.40;;;19.50;99.90;;;;;;5037667;28;20111;-66
2022/08/01 08:08:29;;;;;;;12.93;3.40;;;19.50;99.90;;;;;;5049337;28;20036;-67
2022/08/01 08:10:55;;;;;;;13.93;3.88;;;19.60;99.90;;;;;;5044580;28;20033;-67
2022/08/01 08:13:21;;;;;;;10.70;3.22;;;19.70;99.90;;;;;;5055977;28;20037;-66
2022/08/01 08:15:47;;;;;;;15.15;3.53;;;19.80;99.90;;;;;;5051340;28;20426;-66
2022/08/01 08:18:12;;;;;;;14.85;3.60;;;19.90;99.90;;;;;;5051919;28;20658;-66
2022/08/01 08:20:38;;;;;;;14.30;3.28;;;19.90;99.90;;;;;;5041609;28;20041;-67
2022/08/01 08:24:19;;;;;;;13.25;3.40;;;19.90;99.90;;;;;;5049233;28;20160;-66
2022/08/01 08:25:49;;;;;;;11.52;3.78;;;19.90;99.90;;;;;;5051775;28;20037;-67
2022/08/01 08:28:15;;;;;;;13.43;3.65;;;19.90;99.90;;;;;;5052911;28;20051;-67
2022/08/01 08:30:40;;;;;;;12.93;3.78;;;19.90;99.90;;;;;;5048057;28;20048;-67
2022/08/01 08:33:06;;;;;;;12.77;3.30;;;19.90;99.90;;;;;;5046248;28;20029;-67
2022/08/01 08:35:31;;;;;;;11.07;3.22;;;19.90;99.90;;;;;;5051340;28;20743;-66
2022/08/01 08:37:57;;;;;;;17.75;3.60;;;19.90;99.90;;;;;;5047314;28;20087;-67
2022/08/01 08:40:29;;;;;;;15.65;3.92;;;20.10;99.90;;;;;;5050644;28;20071;-67
2022/08/01 08:42:56;;;;;;;13.20;3.38;;;20.20;99.90;;;;;;5052306;28;20127;-66
2022/08/01 08:45:22;;;;;;;15.68;3.50;;;20.20;99.90;;;;;;5052512;28;20048;-67
2022/08/01 08:47:49;;;;;;;11.18;3.40;;;20.30;99.90;;;;;;5033602;28;20053;-67
2022/08/01 08:50:15;;;;;;;9.20;3.20;;;20.50;99.90;;;;;;5046689;28;20044;-66
2022/08/01 08:52:44;;;;;;;11.77;3.63;;;20.40;99.90;;;;;;5052358;28;20133;-67
2022/08/01 08:55:14;;;;;;;12.27;3.60;;;20.50;99.90;;;;;;5035111;28;20091;-68
2022/08/01 08:57:42;;;;;;;6.65;2.80;;;20.50;99.90;;;;;;5046674;28;20150;-67
2022/08/01 09:00:10;;;;;;;11.95;3.78;;;20.50;99.90;;;;;;5052379;28;20045;-66
2022/08/01 09:02:35;;;;;;;12.07;3.72;;;20.50;99.90;;;;;;5047691;28;20041;-66
2022/08/01 09:05:02;;;;;;;15.90;3.25;;;20.60;99.90;;;;;;5046327;28;20592;-68
2022/08/01 09:07:28;;;;;;;15.32;3.38;;;20.60;99.90;;;;;;5053566;28;20052;-68
2022/08/01 09:09:53;;;;;;;7.25;3.13;;;20.80;99.90;;;;;;5052951;28;20137;-70
2022/08/01 09:12:20;;;;;;;10.20;3.13;;;20.80;99.90;;;;;;5044034;28;20033;-71
2022/08/01 09:14:47;;;;;;;13.05;3.10;;;20.90;99.90;;;;;;5046725;28;20116;-67
2022/08/01 09:17:13;;;;;;;13.07;3.67;;;20.90;99.90;;;;;;5050234;28;20107;-68
2022/08/01 09:19:38;;;;;;;10.05;3.25;;;20.80;99.90;;;;;;5057715;28;20064;-67
2022/08/01 09:22:12;;;;;;;12.73;3.38;;;20.60;99.90;;;;;;5065509;28;20048;-71
2022/08/01 09:24:40;;;;;;;10.05;3.03;;;20.60;99.90;;;;;;5047184;28;20032;-68
2022/08/01 09:27:18;;;;;;;12.18;3.25;;;20.60;99.90;;;;;;5060026;28;20095;-67
2022/08/01 09:29:44;;;;;;;13.52;3.40;;;20.70;99.90;;;;;;5041978;28;20344;-67
2022/08/01 09:32:10;;;;;;;9.82;3.00;;;20.80;99.90;;;;;;5056840;28;20086;-67
2022/08/01 09:34:36;;;;;;;9.73;2.63;;;20.80;99.90;;;;;;5053469;28;20037;-68
2022/08/01 09:37:03;;;;;;;9.13;2.75;;;20.60;99.90;;;;;;5046461;28;20036;-67
2022/08/01 09:39:31;;;;;;;7.18;2.42;;;20.60;99.90;;;;;;5046292;28;20103;-67
2022/08/01 09:42:00;;;;;;;11.57;2.92;;;20.60;99.90;;;;;;5053275;28;20040;-67
2022/08/01 09:44:40;;;;;;;9.10;3.10;;;20.80;99.90;;;;;;5056721;28;20033;-67
2022/08/01 09:47:06;;;;;;;15.15;3.28;;;20.80;99.90;;;;;;5034349;28;20065;-68
2022/08/01 09:49:34;;;;;;;11.00;3.03;;;20.70;99.90;;;;;;5053216;28;20117;-67
2022/08/01 09:52:19;;;;;;;17.45;3.03;;;20.50;99.90;;;;;;5069465;28;20512;-67
2022/08/01 09:55:11;;;;;;;9.57;2.75;;;20.40;99.90;;;;;;5070039;28;20259;-69
2022/08/01 09:57:38;;;;;;;9.77;2.83;;;20.40;99.90;;;;;;5038432;28;20523;-68
2022/08/01 10:00:05;;;;;;;10.73;2.88;;;20.40;99.90;;;;;;5052801;28;20115;-67
2022/08/01 10:02:35;;;;;;;16.00;2.92;;;20.40;99.90;;;;;;5040607;28;20042;-68
2022/08/01 10:05:07;;;;;;;9.65;2.75;;;20.50;99.90;;;;;;5044928;28;20541;-68
2022/08/01 10:07:34;;;;;;;9.25;2.90;;;20.60;99.90;;;;;;5049835;28;20402;-67
2022/08/01 10:10:20;;;;;;;11.13;2.88;;;20.70;99.90;;;;;;5046862;28;20674;-69
2022/08/01 10:12:47;;;;;;;8.18;2.70;;;20.90;99.90;;;;;;5048110;28;20128;-68
2022/08/01 10:15:16;;;;;;;7.88;2.50;;;20.90;99.90;;;;;;5041661;28;20048;-67
2022/08/01 10:17:52;;;;;;;6.20;2.42;;;20.90;99.90;;;;;;5040786;28;20049;-68
2022/08/01 10:20:24;;;;;;;7.90;2.40;;;21.10;99.90;;;;;;5055891;28;20051;-68
2022/08/01 10:22:53;;;;;;;7.15;2.40;;;20.90;99.90;;;;;;5050561;28;20052;-68
2022/08/01 10:25:20;;;;;;;8.85;2.72;;;21.00;99.90;;;;;;5050750;28;20033;-67
2022/08/01 10:27:54;;;;;;;7.22;2.50;;;21.20;99.90;;;;;;5039853;28;20652;-67
2022/08/01 10:30:21;;;;;;;7.38;2.60;;;21.30;99.90;;;;;;5045865;28;20037;-68
2022/08/01 10:32:47;;;;;;;6.97;2.67;;;21.40;99.90;;;;;;5050275;28;20388;-67
2022/08/01 10:35:16;;;;;;;7.15;2.60;;;21.50;99.90;;;;;;5046749;28;20086;-68
2022/08/01 10:37:45;;;;;;;11.30;2.88;;;21.60;99.90;;;;;;5049865;28;20450;-68
2022/08/01 10:40:12;;;;;;;8.48;2.78;;;21.80;99.90;;;;;;5050250;28;20487;-67
2022/08/01 10:42:41;;;;;;;11.13;2.80;;;21.90;99.90;;;;;;5050456;28;20048;-67
2022/08/01 10:45:08;;;;;;;7.75;2.72;;;21.80;99.90;;;;;;5035937;28;20041;-67
2022/08/01 10:47:56;;;;;;;7.40;2.58;;;21.90;99.90;;;;;;5045395;28;20037;-67
2022/08/01 10:50:23;;;;;;;8.85;2.33;;;21.90;99.90;;;;;;5042954;28;20439;-67
2022/08/01 10:53:14;;;;;;;8.52;2.60;;;21.70;99.90;;;;;;5047400;28;20043;-69
2022/08/01 10:55:55;;;;;;;;;;;21.70;99.90;;;;;;5058865;28;20041;-67
2022/08/01 10:58:29;;;;;;;11.82;3.20;;;21.70;99.50;;;;;;5068400;28;19923;-69
2022/08/01 11:01:16;;;;;;;8.73;2.63;;;21.80;99.90;;;;;;5051327;28;20036;-68
2022/08/01 11:03:54;;;;;;;9.57;2.72;;;21.60;99.30;;;;;;5058342;28;20067;-68
2022/08/01 11:06:32;;;;;;;8.10;2.20;;;21.60;99.90;;;;;;5050392;28;20037;-68
2022/08/01 11:08:58;;;;;;;7.03;2.40;;;21.70;99.90;;;;;;5038097;28;20068;-68
2022/08/01 11:11:24;;;;;;;9.52;2.40;;;21.90;99.90;;;;;;5051621;28;20032;-68
2022/08/01 11:14:09;;;;;;;10.52;2.35;;;22.10;99.90;;;;;;5056380;28;20130;-69
2022/08/01 11:16:37;;;;;;;9.32;2.65;;;22.20;99.90;;;;;;5052255;28;20095;-68
2022/08/01 11:19:04;;;;;;;7.13;2.80;;;22.30;99.90;;;;;;5054807;28;20518;-68
2022/08/01 11:22:08;;;;;;;6.50;2.10;;;22.40;99.90;;;;;;5052815;28;20041;-68
2022/08/01 11:24:46;;;;;;;4.10;1.80;;;22.10;97.50;;;;;;4989585;28;20108;-68
2022/08/01 11:27:16;;;;;;;5.85;1.90;;;22.00;99.50;;;;;;5005166;28;20128;-67
2022/08/01 11:29:42;;;;;;;6.82;2.10;;;22.10;99.90;;;;;;5023211;28;20056;-68
2022/08/01 11:32:27;;;;;;;5.97;2.00;;;22.20;99.90;;;;;;5046545;28;20586;-69
2022/08/01 11:34:55;;;;;;;6.95;2.30;;;22.20;98.80;;;;;;5036986;28;20036;-67
2022/08/01 11:37:26;;;;;;;9.82;2.15;;;22.30;99.90;;;;;;5049857;28;20509;-67
2022/08/01 11:40:21;;;;;;;7.13;2.27;;;22.30;99.90;;;;;;5058621;28;20083;-69
2022/08/01 11:42:48;;;;;;;4.97;2.08;;;22.30;97.90;;;;;;5041637;28;20314;-67
2022/08/01 11:45:14;;;;;;;4.35;1.85;;;22.20;99.80;;;;;;5045210;28;20407;-68
2022/08/01 11:47:48;;;;;;;3.38;1.85;;;22.10;99.70;;;;;;5037916;28;20399;-68
2022/08/01 11:50:30;;;;;;;8.63;2.00;;;22.20;99.70;;;;;;5049332;28;20487;-67
2022/08/01 11:53:04;;;;;;;5.38;2.15;;;22.40;97.50;;;;;;5049670;28;20128;-68
2022/08/01 11:55:31;;;;;;;6.57;1.77;;;22.50;96.50;;;;;;5041868;28;20083;-68
2022/08/01 11:58:05;;;;;;;5.28;1.77;;;22.60;99.40;;;;;;5044776;28;20072;-68
2022/08/01 12:00:31;;;;;;;6.18;1.55;;;22.40;97.30;;;;;;5037612;28;20056;-68
2022/08/01 12:03:02;;;;;;;6.05;1.92;;;22.30;98.60;;;;;;5061832;28;20072;-66
2022/08/01 12:05:29;;;;;;;;;;;22.30;98.90;;;;;;5070594;28;20048;-67
2022/08/01 12:07:56;;;;;;;9.65;2.20;;;22.20;94.70;;;;;;5058593;28;19924;-68
2022/08/01 12:10:28;;;;;;;7.70;2.10;;;22.40;99.60;;;;;;5041325;28;20400;-68
2022/08/01 12:13:01;;;;;;;6.75;2.00;;;22.30;98.00;;;;;;5056944;28;20494;-68
2022/08/01 12:15:36;;;;;;;5.95;2.20;;;22.40;98.80;;;;;;5059358;28;20055;-64
2022/08/01 12:18:04;;;;;;;5.22;1.92;;;22.30;98.60;;;;;;5057101;28;20410;-65
2022/08/01 12:20:38;;;;;;;7.20;2.00;;;22.20;98.60;;;;;;5046246;28;20042;-66
2022/08/01 12:23:07;;;;;;;6.13;1.83;;;22.40;98.50;;;;;;5039371;28;20539;-65
2022/08/01 12:25:34;;;;;;;6.07;1.60;;;22.50;99.00;;;;;;5060096;28;20036;-66
2022/08/01 12:28:05;;;;;;;9.10;2.10;;;22.30;97.20;;;;;;5072970;28;20036;-65
2022/08/01 12:30:34;;;;;;;5.15;1.95;;;22.40;98.00;;;;;;5054325;28;20076;-66
2022/08/01 12:33:02;;;;;;;6.25;1.92;;;22.50;98.30;;;;;;5041503;28;20032;-65
2022/08/01 12:35:29;;;;;;;10.02;2.58;;;22.70;98.30;;;;;;5052895;28;20064;-64
2022/08/01 12:38:02;;;;;;;6.63;2.20;;;22.80;97.70;;;;;;5067954;28;20115;-66
2022/08/01 12:40:33;;;;;;;5.85;2.10;;;22.90;97.30;;;;;;5051446;28;20048;-66
2022/08/01 12:42:59;;;;;;;;;;;23.10;96.70;;;;;;5051090;28;20403;-66
2022/08/01 12:45:28;;;;;;;6.93;2.15;;;22.90;94.30;;;;;;5053136;28;19917;-66
2022/08/01 12:47:57;;;;;;;6.03;1.77;;;22.70;98.30;;;;;;5048338;28;20029;-66
2022/08/01 12:50:25;;;;;;;4.70;1.90;;;22.60;97.70;;;;;;5048397;28;20056;-65